createdAt,value
2023-03-31T00:02:07.384Z,66.24
2023-03-31T00:04:34.204Z,65.99
2023-03-31T00:07:00.827Z,65.88
2023-03-31T00:09:29.969Z,65.67
2023-03-31T00:11:56.779Z,66.13
2023-03-31T00:14:23.443Z,65.77
2023-03-31T00:16:50.231Z,65.50
2023-03-31T00:19:20.644Z,66.27
2023-03-31T00:21:48.734Z,65.36
2023-03-31T00:24:16.510Z,66.34
2023-03-31T00:26:43.911Z,64.45
2023-03-31T00:29:13.508Z,65.49
2023-03-31T00:31:40.450Z,66.35
2023-03-31T00:34:07.444Z,65.42
2023-03-31T00:36:36.646Z,65.26
2023-03-31T00:39:09.802Z,66.00
2023-03-31T00:41:39.191Z,64.58
2023-03-31T00:44:22.959Z,64.62
2023-03-31T00:46:55.869Z,63.87
2023-03-31T00:49:37.938Z,64.89
2023-03-31T00:52:13.566Z,65.41
2023-03-31T00:54:42.496Z,65.29
2023-03-31T00:57:10.171Z,65.40
2023-03-31T01:00:01.931Z,65.43
2023-03-31T01:02:29.009Z,64.70
2023-03-31T01:05:02.165Z,65.46
2023-03-31T01:07:35.951Z,65.24
2023-03-31T01:10:05.140Z,64.46
2023-03-31T01:12:34.041Z,64.46
2023-03-31T01:15:01.651Z,64.37
2023-03-31T01:17:29.977Z,64.66
2023-03-31T01:20:26.465Z,64.18
2023-03-31T01:22:59.517Z,64.70
2023-03-31T01:25:50.248Z,64.37
2023-03-31T01:28:35.347Z,65.05
2023-03-31T01:31:08.148Z,66.64
2023-03-31T01:33:47.960Z,67.17
2023-03-31T01:36:52.357Z,66.46
2023-03-31T01:39:44.047Z,66.43
2023-03-31T01:42:29.164Z,66.24
2023-03-31T01:45:08.157Z,66.51
2023-03-31T01:47:46.555Z,65.87
2023-03-31T01:50:24.240Z,66.06
2023-03-31T01:53:02.962Z,67.09
2023-03-31T01:55:39.148Z,66.56
2023-03-31T01:58:19.908Z,66.63
2023-03-31T02:00:56.927Z,66.99
2023-03-31T02:03:53.961Z,65.61
2023-03-31T02:06:25.399Z,66.39
2023-03-31T02:08:58.600Z,64.44
2023-03-31T02:11:26.759Z,64.12
2023-03-31T02:13:56.811Z,65.56
2023-03-31T02:16:28.023Z,65.36
2023-03-31T02:19:02.461Z,64.59
2023-03-31T02:21:33.259Z,64.41
2023-03-31T02:24:11.855Z,63.78
2023-03-31T02:26:45.821Z,63.16
2023-03-31T02:29:12.584Z,63.59
2023-03-31T02:31:49.236Z,64.25
2023-03-31T02:34:16.025Z,64.50
2023-03-31T02:36:44.305Z,64.07
2023-03-31T02:39:15.655Z,62.93
2023-03-31T02:41:42.964Z,63.18
2023-03-31T02:44:11.291Z,62.49
2023-03-31T02:46:38.758Z,62.97
2023-03-31T02:49:08.216Z,63.31
2023-03-31T02:51:41.056Z,61.22
2023-03-31T02:54:10.855Z,61.82
2023-03-31T02:57:13.627Z,60.33
2023-03-31T02:59:49.682Z,61.19
2023-03-31T03:02:53.736Z,62.15
2023-03-31T03:05:40.805Z,61.32
2023-03-31T03:09:00.065Z,61.78
2023-03-31T03:12:04.494Z,61.71
2023-03-31T03:14:51.060Z,62.48
2023-03-31T03:17:32.676Z,62.33
2023-03-31T03:20:01.932Z,59.95
2023-03-31T03:22:28.601Z,60.88
2023-03-31T03:24:55.450Z,61.72
2023-03-31T03:27:25.000Z,62.21
2023-03-31T03:29:52.002Z,61.78
2023-03-31T03:32:18.587Z,62.01
2023-03-31T03:34:45.634Z,60.53
2023-03-31T03:37:12.537Z,60.36
2023-03-31T03:39:39.965Z,61.76
2023-03-31T03:42:06.737Z,61.10
2023-03-31T03:44:33.392Z,59.95
2023-03-31T03:46:59.941Z,61.59
2023-03-31T03:49:26.665Z,62.08
2023-03-31T03:51:53.369Z,61.36
2023-03-31T03:54:20.025Z,60.11
2023-03-31T03:56:46.822Z,60.70
2023-03-31T03:59:13.655Z,60.57
2023-03-31T04:01:40.831Z,60.01
2023-03-31T04:04:07.524Z,59.82
2023-03-31T04:06:34.917Z,60.56
2023-03-31T04:09:02.018Z,59.62
2023-03-31T04:11:28.682Z,59.58
2023-03-31T04:13:55.354Z,59.75
2023-03-31T04:16:23.130Z,59.24
2023-03-31T04:18:49.865Z,59.05
2023-03-31T04:21:23.149Z,57.38
2023-03-31T04:23:58.598Z,59.34
2023-03-31T04:26:38.826Z,59.63
2023-03-31T04:29:07.496Z,59.42
2023-03-31T04:31:38.781Z,58.08
2023-03-31T04:34:07.099Z,60.02
2023-03-31T04:36:34.091Z,57.18
2023-03-31T04:39:01.272Z,59.28
2023-03-31T04:41:28.019Z,58.75
2023-03-31T04:43:54.787Z,59.78
2023-03-31T04:46:22.116Z,58.91
2023-03-31T04:48:48.867Z,60.15
2023-03-31T04:51:16.360Z,61.42
2023-03-31T04:53:43.021Z,59.25
2023-03-31T04:56:09.761Z,58.69
2023-03-31T04:58:36.656Z,61.25
2023-03-31T05:01:03.680Z,57.72
2023-03-31T05:03:31.017Z,57.65
2023-03-31T05:05:58.085Z,58.79
2023-03-31T05:08:24.703Z,57.21
2023-03-31T05:10:51.286Z,57.97
2023-03-31T05:13:17.946Z,56.50
2023-03-31T05:15:45.363Z,56.50
2023-03-31T05:18:12.039Z,57.31
2023-03-31T05:20:39.185Z,56.94
2023-03-31T05:23:06.981Z,57.49
2023-03-31T05:25:33.990Z,54.76
2023-03-31T05:28:02.016Z,57.99
2023-03-31T05:30:28.923Z,57.03
2023-03-31T05:32:56.421Z,55.23
2023-03-31T05:35:23.373Z,58.48
2023-03-31T05:37:50.070Z,58.96
2023-03-31T05:40:16.789Z,57.18
2023-03-31T05:42:43.411Z,55.51
2023-03-31T05:45:10.547Z,58.88
2023-03-31T05:47:37.215Z,54.80
2023-03-31T05:50:08.024Z,58.21
2023-03-31T05:52:35.666Z,56.30
2023-03-31T05:55:02.575Z,56.13
2023-03-31T05:57:29.301Z,56.20
2023-03-31T05:59:56.054Z,55.73
2023-03-31T06:02:22.808Z,57.48
2023-03-31T06:04:50.228Z,58.18
2023-03-31T06:07:17.901Z,57.26
2023-03-31T06:09:45.734Z,55.39
2023-03-31T06:12:12.364Z,56.10
2023-03-31T06:14:39.023Z,56.40
2023-03-31T06:17:05.813Z,56.00
2023-03-31T06:19:32.430Z,53.46
2023-03-31T06:21:59.100Z,54.24
2023-03-31T06:24:25.733Z,55.84
2023-03-31T06:26:53.783Z,54.14
2023-03-31T06:29:20.788Z,58.10
2023-03-31T06:31:47.643Z,55.37
2023-03-31T06:34:14.423Z,55.42
2023-03-31T06:36:42.023Z,54.96
2023-03-31T06:39:08.761Z,56.49
2023-03-31T06:44:02.112Z,53.91
2023-03-31T06:46:28.903Z,54.15
2023-03-31T06:48:55.460Z,57.12
2023-03-31T06:51:22.189Z,54.37
2023-03-31T06:53:48.733Z,55.59
2023-03-31T06:56:15.804Z,53.25
2023-03-31T06:58:42.400Z,53.79
2023-03-31T07:01:11.155Z,54.99
2023-03-31T07:03:38.137Z,52.92
2023-03-31T07:06:05.007Z,52.41
2023-03-31T07:08:31.572Z,55.89
2023-03-31T07:10:59.900Z,54.81
2023-03-31T07:13:27.414Z,54.46
2023-03-31T07:15:54.659Z,53.11
2023-03-31T07:18:21.940Z,54.18
2023-03-31T07:20:50.605Z,54.19
2023-03-31T07:23:17.703Z,51.29
2023-03-31T07:25:45.403Z,52.41
2023-03-31T07:28:12.201Z,51.74
2023-03-31T07:30:40.117Z,50.87
2023-03-31T07:33:07.565Z,53.11
2023-03-31T07:35:37.897Z,50.65
2023-03-31T07:38:04.557Z,51.90
2023-03-31T07:40:31.210Z,50.94
2023-03-31T07:42:57.916Z,53.25
2023-03-31T07:45:26.104Z,50.73
2023-03-31T07:47:53.212Z,52.30
2023-03-31T07:50:20.758Z,50.95
2023-03-31T07:52:49.918Z,53.63
2023-03-31T07:55:16.738Z,53.50
2023-03-31T07:57:46.156Z,53.58
2023-03-31T08:00:13.908Z,52.52
2023-03-31T08:02:42.906Z,54.03
2023-03-31T08:05:12.018Z,51.81
2023-03-31T08:07:41.815Z,49.82
2023-03-31T08:10:11.751Z,49.95
2023-03-31T08:12:38.500Z,50.40
2023-03-31T08:15:05.882Z,50.48
2023-03-31T08:17:32.706Z,50.95
2023-03-31T08:20:03.769Z,51.07
2023-03-31T08:22:32.861Z,50.41
2023-03-31T08:24:59.561Z,49.53
2023-03-31T08:27:26.217Z,50.58
2023-03-31T08:29:52.887Z,50.55
2023-03-31T08:32:23.165Z,48.83
2023-03-31T08:34:50.036Z,50.51
2023-03-31T08:37:16.675Z,49.31
2023-03-31T08:39:43.279Z,51.07
2023-03-31T08:42:25.638Z,50.28
2023-03-31T08:45:03.435Z,48.03
2023-03-31T08:47:32.992Z,47.32
2023-03-31T08:50:06.928Z,49.09
2023-03-31T08:52:39.969Z,49.20
2023-03-31T08:55:13.706Z,45.92
2023-03-31T08:57:51.720Z,47.29
2023-03-31T09:00:19.507Z,47.82
2023-03-31T09:03:08.132Z,46.84
2023-03-31T09:06:00.751Z,49.82
2023-03-31T09:08:35.728Z,48.65
2023-03-31T09:11:08.144Z,50.45
2023-03-31T09:13:44.992Z,46.31
2023-03-31T09:16:16.718Z,48.93
2023-03-31T09:18:46.865Z,48.23
2023-03-31T09:21:21.123Z,47.86
2023-03-31T09:24:00.188Z,46.52
2023-03-31T09:26:38.465Z,48.27
2023-03-31T09:29:15.514Z,48.16
2023-03-31T09:31:44.631Z,46.97
2023-03-31T09:34:26.621Z,47.16
2023-03-31T09:36:53.273Z,47.33
2023-03-31T09:39:20.009Z,44.95
2023-03-31T09:41:50.137Z,43.98
2023-03-31T09:44:25.996Z,44.31
2023-03-31T09:46:53.840Z,44.95
2023-03-31T09:49:23.166Z,45.17
2023-03-31T09:52:01.705Z,45.81
2023-03-31T09:54:38.524Z,46.29
2023-03-31T09:57:24.281Z,47.47
2023-03-31T09:59:52.122Z,48.25
2023-03-31T10:02:37.640Z,48.03
2023-03-31T10:05:06.936Z,49.13
2023-03-31T10:07:35.074Z,49.25
2023-03-31T10:10:02.241Z,47.36
2023-03-31T10:12:31.105Z,46.86
2023-03-31T10:15:27.666Z,46.78
2023-03-31T10:17:57.853Z,44.49
2023-03-31T10:20:58.204Z,46.04
2023-03-31T10:23:29.261Z,47.40
2023-03-31T10:25:56.581Z,44.57
2023-03-31T10:28:23.586Z,48.24
2023-03-31T10:30:56.251Z,46.14
2023-03-31T10:33:25.740Z,47.77
2023-03-31T10:35:57.775Z,46.72
2023-03-31T10:38:35.385Z,47.97
2023-03-31T10:41:02.688Z,48.44
2023-03-31T10:43:37.402Z,44.40
2023-03-31T10:46:04.380Z,46.82
2023-03-31T10:48:33.498Z,46.92
2023-03-31T10:51:14.797Z,47.41
2023-03-31T10:53:47.348Z,47.54
2023-03-31T10:56:23.762Z,46.78
2023-03-31T10:59:22.885Z,45.97
2023-03-31T11:02:13.670Z,47.24
2023-03-31T11:04:52.392Z,47.55
2023-03-31T11:07:29.851Z,47.58
2023-03-31T11:10:03.431Z,46.95
2023-03-31T11:12:54.557Z,44.73
2023-03-31T11:15:36.246Z,44.92
2023-03-31T11:18:43.323Z,44.47
2023-03-31T11:21:45.359Z,45.31
2023-03-31T11:24:38.456Z,46.54
2023-03-31T11:27:17.500Z,43.76
2023-03-31T11:30:26.157Z,45.87
2023-03-31T11:32:52.866Z,46.89
2023-03-31T11:35:35.664Z,44.05
2023-03-31T11:38:24.725Z,44.12
2023-03-31T11:41:00.074Z,44.80
2023-03-31T11:43:33.974Z,45.24
2023-03-31T11:46:08.571Z,46.80
2023-03-31T11:48:55.213Z,43.44
2023-03-31T11:51:42.562Z,44.08
2023-03-31T11:54:21.493Z,42.17
2023-03-31T11:56:49.225Z,43.48
2023-03-31T11:59:19.445Z,44.29
2023-03-31T12:01:57.795Z,44.83
2023-03-31T12:04:30.431Z,45.24
2023-03-31T12:07:04.309Z,44.11
2023-03-31T12:10:05.849Z,43.28
2023-03-31T12:12:39.073Z,42.28
2023-03-31T12:15:27.437Z,44.44
2023-03-31T12:18:17.955Z,43.89
2023-03-31T12:20:53.482Z,43.34
2023-03-31T12:23:24.963Z,44.01
2023-03-31T12:26:16.988Z,44.53
2023-03-31T12:28:45.950Z,42.05
2023-03-31T12:31:22.853Z,45.15
2023-03-31T12:33:57.316Z,44.23
2023-03-31T12:36:32.778Z,43.95
2023-03-31T12:39:31.815Z,45.10
2023-03-31T12:42:04.438Z,41.29
2023-03-31T12:44:43.164Z,42.90
2023-03-31T12:47:58.010Z,43.23
2023-03-31T12:50:51.468Z,39.76
2023-03-31T12:53:42.197Z,42.90
2023-03-31T12:56:08.909Z,41.66
2023-03-31T12:58:47.001Z,40.14
2023-03-31T13:01:21.602Z,41.00
2023-03-31T13:04:10.183Z,40.82
2023-03-31T13:06:36.818Z,42.61
2023-03-31T13:09:11.504Z,41.89
2023-03-31T13:11:47.895Z,41.46
2023-03-31T13:14:27.435Z,40.22
2023-03-31T13:17:20.188Z,41.57
2023-03-31T13:19:47.433Z,39.00
2023-03-31T13:22:32.734Z,41.65
2023-03-31T13:25:30.785Z,42.39
2023-03-31T13:27:59.423Z,39.35
2023-03-31T13:30:43.915Z,38.77
2023-03-31T13:33:17.768Z,37.84
2023-03-31T13:35:50.154Z,39.06
2023-03-31T13:38:51.270Z,36.12
2023-03-31T13:41:59.769Z,39.75
2023-03-31T13:44:52.887Z,41.02
2023-03-31T13:47:34.521Z,41.13
2023-03-31T13:50:17.573Z,40.90
2023-03-31T13:52:56.229Z,41.78
2023-03-31T13:55:48.650Z,40.73
2023-03-31T13:58:34.196Z,39.22
2023-03-31T14:01:23.474Z,41.00
2023-03-31T14:04:08.098Z,38.90
2023-03-31T14:06:45.280Z,39.90
2023-03-31T14:09:23.859Z,35.80
2023-03-31T14:11:50.769Z,35.57
2023-03-31T14:14:19.236Z,37.40
2023-03-31T14:16:46.004Z,37.93
2023-03-31T14:19:49.958Z,36.07
2023-03-31T14:22:19.950Z,36.67
2023-03-31T14:25:17.434Z,38.63
2023-03-31T14:27:58.555Z,40.39
2023-03-31T14:30:48.244Z,36.64
2023-03-31T14:33:26.153Z,35.46
2023-03-31T14:36:01.930Z,36.17
2023-03-31T14:38:30.157Z,38.70
2023-03-31T14:41:01.040Z,36.10
2023-03-31T14:43:33.880Z,38.37
2023-03-31T14:46:11.005Z,35.08
2023-03-31T14:48:45.958Z,38.77
2023-03-31T14:51:16.127Z,33.69
2023-03-31T14:53:45.984Z,37.46
2023-03-31T14:56:15.813Z,36.94
2023-03-31T14:58:48.366Z,37.13
2023-03-31T15:01:19.022Z,35.13
2023-03-31T15:03:46.999Z,33.81
2023-03-31T15:06:14.224Z,33.77
2023-03-31T15:08:41.257Z,36.52
2023-03-31T15:11:15.414Z,36.53
2023-03-31T15:13:52.961Z,33.38
2023-03-31T15:16:44.269Z,36.82
2023-03-31T15:19:33.542Z,35.79
2023-03-31T15:22:20.923Z,37.77
2023-03-31T15:24:47.683Z,34.62
2023-03-31T15:27:20.542Z,36.45
2023-03-31T15:29:58.216Z,37.32
2023-03-31T15:32:27.790Z,38.80
2023-03-31T15:34:57.344Z,36.55
2023-03-31T15:37:37.359Z,34.40
2023-03-31T15:40:09.089Z,36.31
2023-03-31T15:42:37.067Z,35.23
2023-03-31T15:45:21.775Z,35.83
2023-03-31T15:47:54.188Z,33.95
2023-03-31T15:50:23.857Z,36.56
2023-03-31T15:52:54.651Z,34.26
2023-03-31T15:55:29.480Z,32.66
2023-03-31T15:57:58.878Z,34.57
2023-03-31T16:00:31.641Z,36.26
2023-03-31T16:03:00.398Z,36.09
2023-03-31T16:08:44.583Z,36.13
2023-03-31T16:11:17.483Z,34.28
2023-03-31T16:13:49.101Z,33.16
2023-03-31T16:16:19.126Z,33.74
2023-03-31T16:18:51.102Z,33.04
2023-03-31T16:21:30.401Z,34.88
2023-03-31T16:23:59.326Z,34.22
2023-03-31T16:26:28.277Z,33.92
2023-03-31T16:28:57.684Z,33.46
2023-03-31T16:31:31.082Z,35.18
2023-03-31T16:33:58.059Z,33.88
2023-03-31T16:36:24.951Z,35.17
2023-03-31T16:38:53.862Z,33.22
2023-03-31T16:41:23.325Z,37.12
2023-03-31T16:43:52.625Z,36.20
2023-03-31T16:46:19.503Z,32.88
2023-03-31T16:48:46.434Z,31.87
2023-03-31T16:51:13.483Z,36.08
2023-03-31T16:53:40.370Z,36.29
2023-03-31T16:56:08.292Z,35.94
2023-03-31T16:58:36.600Z,32.55
2023-03-31T17:01:04.674Z,33.52
2023-03-31T17:03:31.897Z,34.00
2023-03-31T17:06:03.724Z,33.95
2023-03-31T17:08:31.315Z,33.44
2023-03-31T17:11:05.325Z,33.01
2023-03-31T17:13:33.757Z,33.67
2023-03-31T17:16:08.618Z,35.02
2023-03-31T17:18:42.619Z,32.78
2023-03-31T17:21:13.649Z,34.65
2023-03-31T17:23:41.204Z,33.72
2023-03-31T17:26:12.918Z,37.02
2023-03-31T17:28:40.337Z,33.94
2023-03-31T17:31:21.492Z,36.62
2023-03-31T17:33:48.675Z,36.25
2023-03-31T17:36:16.693Z,34.70
2023-03-31T17:38:43.442Z,33.36
2023-03-31T17:41:12.928Z,32.77
2023-03-31T17:43:40.092Z,36.79
2023-03-31T17:46:12.922Z,36.23
2023-03-31T17:48:41.317Z,33.85
2023-03-31T17:51:10.576Z,35.05
2023-03-31T17:53:37.300Z,35.53
2023-03-31T17:56:05.052Z,37.06
2023-03-31T17:58:32.660Z,37.06
2023-03-31T18:00:59.553Z,37.05
2023-03-31T18:03:29.532Z,37.84
2023-03-31T18:05:57.052Z,34.76
2023-03-31T18:08:23.889Z,33.31
2023-03-31T18:10:50.661Z,34.34
2023-03-31T18:13:17.470Z,34.99
2023-03-31T18:15:51.493Z,35.23
2023-03-31T18:18:19.298Z,34.46
2023-03-31T18:20:46.011Z,36.63
2023-03-31T18:23:13.113Z,35.08
2023-03-31T18:25:43.957Z,37.35
2023-03-31T18:28:10.979Z,33.83
2023-03-31T18:30:37.863Z,35.25
2023-03-31T18:33:05.089Z,38.38
2023-03-31T18:35:32.125Z,37.73
2023-03-31T18:37:58.972Z,35.12
2023-03-31T18:40:25.561Z,35.94
2023-03-31T18:42:52.432Z,38.84
2023-03-31T18:45:19.044Z,39.90
2023-03-31T18:47:45.696Z,39.49
2023-03-31T18:50:13.968Z,40.47
2023-03-31T18:52:41.201Z,39.42
2023-03-31T18:55:08.190Z,40.53
2023-03-31T18:57:34.933Z,37.14
2023-03-31T19:00:01.802Z,36.78
2023-03-31T19:02:28.696Z,39.72
2023-03-31T19:04:55.426Z,38.58
2023-03-31T19:07:22.104Z,38.62
2023-03-31T19:09:49.095Z,39.91
2023-03-31T19:12:16.570Z,38.04
2023-03-31T19:14:43.973Z,38.31
2023-03-31T19:17:11.653Z,40.08
2023-03-31T19:19:38.243Z,38.03
2023-03-31T19:22:05.204Z,38.99
2023-03-31T19:24:31.885Z,38.95
2023-03-31T19:26:58.532Z,37.55
2023-03-31T19:29:25.383Z,37.51
2023-03-31T19:31:52.252Z,40.22
2023-03-31T19:34:19.035Z,38.19
2023-03-31T19:36:45.678Z,38.89
2023-03-31T19:39:12.610Z,38.97
2023-03-31T19:41:39.337Z,41.38
2023-03-31T19:44:06.121Z,38.36
2023-03-31T19:46:32.848Z,41.09
2023-03-31T19:48:59.473Z,40.91
2023-03-31T19:51:27.622Z,40.80
2023-03-31T19:53:54.489Z,40.09
2023-03-31T19:56:25.100Z,38.56
2023-03-31T19:58:52.563Z,39.73
2023-03-31T20:01:22.825Z,37.63
2023-03-31T20:03:53.017Z,39.31
2023-03-31T20:06:23.286Z,38.32
2023-03-31T20:08:55.433Z,38.27
2023-03-31T20:11:22.399Z,40.61
2023-03-31T20:13:49.113Z,41.43
2023-03-31T20:16:19.288Z,41.65
2023-03-31T20:18:51.767Z,40.90
2023-03-31T20:21:20.613Z,41.16
2023-03-31T20:23:47.896Z,40.21
2023-03-31T20:26:16.755Z,40.99
2023-03-31T20:28:43.681Z,40.01
2023-03-31T20:31:14.901Z,39.95
2023-03-31T20:33:42.630Z,41.06
2023-03-31T20:36:15.260Z,40.67
2023-03-31T20:38:44.459Z,40.26
2023-03-31T20:41:11.571Z,40.82
2023-03-31T20:43:38.771Z,40.94
2023-03-31T20:46:07.462Z,40.33
2023-03-31T20:48:42.453Z,40.57
2023-03-31T20:51:12.233Z,39.27
2023-03-31T20:53:42.269Z,40.00
2023-03-31T20:56:19.766Z,40.86
2023-03-31T20:58:47.486Z,40.50
2023-03-31T21:01:14.881Z,41.39
2023-03-31T21:03:42.311Z,41.49
2023-03-31T21:06:12.059Z,39.44
2023-03-31T21:08:42.874Z,39.21
2023-03-31T21:11:10.037Z,41.13
2023-03-31T21:13:37.078Z,42.83
2023-03-31T21:16:04.825Z,40.98
2023-03-31T21:18:33.792Z,42.65
2023-03-31T21:21:03.442Z,43.04
2023-03-31T21:23:30.939Z,42.97
2023-03-31T21:25:59.637Z,44.35
2023-03-31T21:28:28.662Z,41.77
2023-03-31T21:31:19.824Z,42.39
2023-03-31T21:33:46.919Z,40.73
2023-03-31T21:36:16.505Z,42.30
2023-03-31T21:38:44.744Z,42.02
2023-03-31T21:41:13.902Z,42.33
2023-03-31T21:43:41.649Z,42.83
2023-03-31T21:46:09.092Z,42.44
2023-03-31T21:48:35.877Z,41.66
2023-03-31T21:51:03.213Z,42.64
2023-03-31T21:53:31.468Z,42.03
2023-03-31T21:55:58.773Z,40.16
2023-03-31T21:58:28.646Z,40.42
2023-03-31T22:00:57.675Z,41.04
2023-03-31T22:03:34.000Z,42.00
2023-03-31T22:06:03.502Z,40.00
2023-03-31T22:08:31.666Z,40.99
2023-03-31T22:11:00.210Z,41.12
2023-03-31T22:13:28.011Z,43.65
2023-03-31T22:15:55.155Z,41.37
2023-03-31T22:18:22.612Z,41.71
2023-03-31T22:20:50.402Z,41.33
2023-03-31T22:23:17.201Z,42.10
2023-03-31T22:25:43.864Z,42.28
2023-03-31T22:28:10.841Z,42.41
2023-03-31T22:30:37.795Z,44.54
2023-03-31T22:33:04.457Z,43.55
2023-03-31T22:35:31.417Z,42.92
2023-03-31T22:37:58.363Z,44.68
2023-03-31T22:40:25.034Z,44.14
2023-03-31T22:42:54.636Z,44.35
2023-03-31T22:45:21.464Z,44.16
2023-03-31T22:47:48.143Z,43.38
2023-03-31T22:50:14.957Z,43.02
2023-03-31T22:52:41.536Z,43.11
2023-03-31T22:55:08.227Z,41.66
2023-03-31T22:57:34.937Z,42.48
2023-03-31T23:00:01.746Z,44.44
2023-03-31T23:02:28.420Z,42.38
2023-03-31T23:04:55.389Z,43.11
2023-03-31T23:07:22.271Z,42.73
2023-03-31T23:09:49.144Z,42.91
2023-03-31T23:12:15.951Z,43.12
2023-03-31T23:14:42.609Z,41.97
2023-03-31T23:17:09.296Z,42.35
2023-03-31T23:19:37.127Z,43.11
2023-03-31T23:22:03.816Z,44.45
2023-03-31T23:24:30.568Z,42.57
2023-03-31T23:26:57.235Z,41.75
2023-03-31T23:29:24.000Z,43.20
2023-03-31T23:31:50.703Z,43.72
2023-03-31T23:34:17.660Z,43.17
2023-03-31T23:36:44.278Z,42.77
2023-03-31T23:39:11.057Z,42.91
2023-03-31T23:41:37.765Z,43.50
2023-03-31T23:44:04.757Z,42.00
2023-03-31T23:46:33.495Z,42.77
2023-03-31T23:49:02.675Z,42.07
2023-03-31T23:51:29.351Z,43.13
2023-03-31T23:53:56.263Z,42.38
2023-03-31T23:56:23.130Z,43.99
2023-03-31T23:58:49.957Z,43.28
